MSC Divina — 3FFA5 — position and weather

sailwx.info

Track history (hours):
 
Tides and Currents Weather Stations Pressure Air Temp Water Temp Dewpoint Dewpoint Depression Visibility Wind Speed Wind Dir Waves Ship Positions

MSC Divina

Last reported at 2017-Oct-22 02:10 UTC. Time now 2017-Oct-22 17:52 UTC.
Position N 25°20' W 079°40'.

Length 333 m; draft 8.7 m.

Type: Passenger vessel. MMSI: 373178000.

Date/timePositionNaut miles runAvg speedWind from/ knotsBaromVisibWave heightAir tempDewpointWater temp
2017-Oct-22 02:10N 25°20' W 079°40'315.5
2017-Oct-22 01:58N 25°23' W 079°41'715.1
2017-Oct-22 01:30N 25°29' W 079°45'815.4
2017-Oct-22 01:00N 25°35' W 079°51'815.8
2017-Oct-22 00:30N 25°40' W 079°57'816.1
2017-Oct-22 00:00N 25°45' W 080°04'4 8.8
2017-Oct-21 23:30N 25°46' W 080°09'2 3.5
2017-Oct-21 22:58N 25°47' W 080°11'0 0.0
2017-Oct-21 22:28N 25°47' W 080°11'0 0.0
2017-Oct-21 21:58N 25°47' W 080°11'0 0.0
2017-Oct-21 21:28N 25°47' W 080°11'0 0.0
2017-Oct-21 20:58N 25°47' W 080°11'0 0.0
2017-Oct-21 20:28N 25°47' W 080°11'0 0.0
2017-Oct-21 19:58N 25°47' W 080°11'0 0.0
2017-Oct-21 19:28N 25°47' W 080°11'0 0.0
2017-Oct-21 18:46N 25°47' W 080°11'0 0.0
2017-Oct-21 18:28N 25°47' W 080°11'0 0.0
2017-Oct-21 17:58N 25°47' W 080°11'0 0.0
2017-Oct-21 17:28N 25°47' W 080°11'0 0.0
2017-Oct-21 16:58N 25°47' W 080°11'0 0.0
2017-Oct-21 16:28N 25°47' W 080°11'0 0.0
2017-Oct-21 15:49N 25°47' W 080°11'0 0.0
2017-Oct-21 15:04N 25°47' W 080°11'0 0.0
2017-Oct-21 14:49N 25°47' W 080°11'0 0.0
2017-Oct-21 13:52N 25°47' W 080°11'0 0.0
2017-Oct-21 13:22N 25°47' W 080°11'0 0.0
2017-Oct-21 12:52N 25°47' W 080°11'0 0.0
2017-Oct-21 12:22N 25°47' W 080°11'0 0.0
2017-Oct-21 11:52N 25°47' W 080°11'0 0.0
2017-Oct-21 11:25N 25°47' W 080°11'0 0.0
2017-Oct-21 10:55N 25°47' W 080°11'0 0.0
2017-Oct-21 10:25N 25°47' W 080°11'0 0.0
2017-Oct-21 10:00N 25°47' W 080°11'0 0.4
2017-Oct-21 09:30N 25°47' W 080°11'4 7.9
2017-Oct-21 09:00N 25°45' W 080°07'510.9
2017-Oct-21 08:30N 25°48' W 080°01'5 9.7
2017-Oct-21 08:00N 25°49' W 079°56'816.0
2017-Oct-21 07:30N 25°53' W 079°48'816.5
2017-Oct-21 07:00N 25°57' W 079°40'917.1
2017-Oct-21 06:30N 26°01' W 079°32'917.5
2017-Oct-21 06:00N 26°05' W 079°23'99 5.5
2017-Oct-20 12:00N 25°42' W 077°36'9615.4 050 / 231019.8 5.4 29.024.929.0
2017-Oct-20 05:44N 25°46' W 079°23'621.5
2017-Oct-20 05:28N 25°41' W 079°25'1021.7
2017-Oct-20 05:00N 25°31' W 079°28'33419.7
2017-Oct-19 12:00N 22°30' W 084°36'26010.8 090 / 171016.8 5.4 27.024.329.0
2017-Oct-18 12:00N 18°48' W 087°00'55711.6 060 / 91014.6 5.4 29.024.929.0
2017-Oct-16 12:00N 18°48' W 077°12'228 9.5 130 / 141014.1 5.4 29.024.929.0
2017-Oct-15 12:00N 22°30' W 078°06'19219.0 060 / 171019.1 5.4 28.025.329.0
2017-Oct-15 01:54N 25°21' W 079°40'714.7
2017-Oct-15 01:26N 25°28' W 079°43'715.5
2017-Oct-15 01:00N 25°32' W 079°48'815.6
2017-Oct-15 00:31N 25°38' W 079°54'816.3
2017-Oct-15 00:01N 25°43' W 080°01'612.0
2017-Oct-14 23:30N 25°46' W 080°07'3 6.4
2017-Oct-14 23:00N 25°47' W 080°11'0 0.0
2017-Oct-14 22:29N 25°47' W 080°11'0 0.0
2017-Oct-14 21:59N 25°47' W 080°11'0 0.0
2017-Oct-14 21:30N 25°47' W 080°11'0 0.0
2017-Oct-14 21:00N 25°47' W 080°11'0 0.0
2017-Oct-14 20:29N 25°47' W 080°11'0 0.0
2017-Oct-14 20:00N 25°47' W 080°11'0 0.0
2017-Oct-14 19:30N 25°47' W 080°11'0 0.0
2017-Oct-14 19:00N 25°47' W 080°11'0 0.0
2017-Oct-14 18:29N 25°47' W 080°11'0 0.0
2017-Oct-14 17:59N 25°47' W 080°11'0 0.0
2017-Oct-14 17:29N 25°47' W 080°11'0 0.0
2017-Oct-14 17:00N 25°47' W 080°11'0 0.0
2017-Oct-14 16:30N 25°47' W 080°11'0 0.0
2017-Oct-14 16:00N 25°47' W 080°11'0 0.0
2017-Oct-14 15:29N 25°47' W 080°11'0 0.0
2017-Oct-14 14:59N 25°47' W 080°11'0 0.0
2017-Oct-14 14:30N 25°47' W 080°11'0 0.0
2017-Oct-14 14:00N 25°47' W 080°11'0 0.0
2017-Oct-14 13:30N 25°47' W 080°11'0 0.0
2017-Oct-14 13:00N 25°47' W 080°11'0 0.0
2017-Oct-14 12:30N 25°47' W 080°11'0 0.0
2017-Oct-14 11:59N 25°47' W 080°11'0 0.0
2017-Oct-14 11:29N 25°47' W 080°11'0 0.0
2017-Oct-14 11:00N 25°47' W 080°11'0 0.0
2017-Oct-14 10:30N 25°47' W 080°11'0 0.0
2017-Oct-14 10:00N 25°47' W 080°11'0 0.6
2017-Oct-14 09:31N 25°47' W 080°11'2 4.1
2017-Oct-14 09:00N 25°46' W 080°09'611.8
2017-Oct-14 08:31N 25°47' W 080°02'510.3
2017-Oct-14 08:00N 25°49' W 079°57'816.9
2017-Oct-14 07:30N 25°53' W 079°49'917.1
2017-Oct-14 07:01N 25°57' W 079°40'917.0
2017-Oct-14 06:30N 26°02' W 079°33'817.0
2017-Oct-14 06:01N 26°06' W 079°24'124 6.9
2017-Oct-13 12:00N 25°06' W 077°24'11515.6 090 / 181016.1 5.4 29.026.328.0
2017-Oct-13 04:36N 25°49' W 079°22'219.4
2017-Oct-13 04:30N 25°48' W 079°23'1019.4
2017-Oct-13 04:00N 25°38' W 079°26'1119.5
2017-Oct-13 03:27N 25°28' W 079°30'27417.7
2017-Oct-12 12:00N 23°00' W 083°42'   030 / 201014.1 5.4 29.024.928.0
Track history (hours):
 
Tides and Currents Weather Stations Pressure Air Temp Water Temp Dewpoint Dewpoint Depression Visibility Wind Speed Wind Dir Waves Ship Positions

MSC Divina

Last reported at 2017-Oct-22 02:10 UTC. Time now 2017-Oct-22 17:52 UTC.
Position N 25°20' W 079°40'.

Length 333 m; draft 8.7 m.

Type: Passenger vessel. MMSI: 373178000.

Date/timePositionNaut miles runAvg speedWind from/ knotsBaromVisibWave heightAir tempDewpointWater temp
2017-Oct-22 02:10N 25°20' W 079°40'315.5
2017-Oct-22 01:58N 25°23' W 079°41'715.1
2017-Oct-22 01:30N 25°29' W 079°45'815.4
2017-Oct-22 01:00N 25°35' W 079°51'815.8
2017-Oct-22 00:30N 25°40' W 079°57'816.1
2017-Oct-22 00:00N 25°45' W 080°04'4 8.8
2017-Oct-21 23:30N 25°46' W 080°09'2 3.5
2017-Oct-21 22:58N 25°47' W 080°11'0 0.0
2017-Oct-21 22:28N 25°47' W 080°11'0 0.0
2017-Oct-21 21:58N 25°47' W 080°11'0 0.0
2017-Oct-21 21:28N 25°47' W 080°11'0 0.0
2017-Oct-21 20:58N 25°47' W 080°11'0 0.0
2017-Oct-21 20:28N 25°47' W 080°11'0 0.0
2017-Oct-21 19:58N 25°47' W 080°11'0 0.0
2017-Oct-21 19:28N 25°47' W 080°11'0 0.0
2017-Oct-21 18:46N 25°47' W 080°11'0 0.0
2017-Oct-21 18:28N 25°47' W 080°11'0 0.0
2017-Oct-21 17:58N 25°47' W 080°11'0 0.0
2017-Oct-21 17:28N 25°47' W 080°11'0 0.0
2017-Oct-21 16:58N 25°47' W 080°11'0 0.0
2017-Oct-21 16:28N 25°47' W 080°11'0 0.0
2017-Oct-21 15:49N 25°47' W 080°11'0 0.0
2017-Oct-21 15:04N 25°47' W 080°11'0 0.0
2017-Oct-21 14:49N 25°47' W 080°11'0 0.0
2017-Oct-21 13:52N 25°47' W 080°11'0 0.0
2017-Oct-21 13:22N 25°47' W 080°11'0 0.0
2017-Oct-21 12:52N 25°47' W 080°11'0 0.0
2017-Oct-21 12:22N 25°47' W 080°11'0 0.0
2017-Oct-21 11:52N 25°47' W 080°11'0 0.0
2017-Oct-21 11:25N 25°47' W 080°11'0 0.0
2017-Oct-21 10:55N 25°47' W 080°11'0 0.0
2017-Oct-21 10:25N 25°47' W 080°11'0 0.0
2017-Oct-21 10:00N 25°47' W 080°11'0 0.4
2017-Oct-21 09:30N 25°47' W 080°11'4 7.9
2017-Oct-21 09:00N 25°45' W 080°07'510.9
2017-Oct-21 08:30N 25°48' W 080°01'5 9.7
2017-Oct-21 08:00N 25°49' W 079°56'816.0
2017-Oct-21 07:30N 25°53' W 079°48'816.5
2017-Oct-21 07:00N 25°57' W 079°40'917.1
2017-Oct-21 06:30N 26°01' W 079°32'917.5
2017-Oct-21 06:00N 26°05' W 079°23'99 5.5
2017-Oct-20 12:00N 25°42' W 077°36'9615.4 050 / 231019.8 5.4 29.024.929.0
2017-Oct-20 05:44N 25°46' W 079°23'621.5
2017-Oct-20 05:28N 25°41' W 079°25'1021.7
2017-Oct-20 05:00N 25°31' W 079°28'33419.7
2017-Oct-19 12:00N 22°30' W 084°36'26010.8 090 / 171016.8 5.4 27.024.329.0
2017-Oct-18 12:00N 18°48' W 087°00'55711.6 060 / 91014.6 5.4 29.024.929.0
2017-Oct-16 12:00N 18°48' W 077°12'228 9.5 130 / 141014.1 5.4 29.024.929.0
2017-Oct-15 12:00N 22°30' W 078°06'19219.0 060 / 171019.1 5.4 28.025.329.0
2017-Oct-15 01:54N 25°21' W 079°40'714.7
2017-Oct-15 01:26N 25°28' W 079°43'715.5
2017-Oct-15 01:00N 25°32' W 079°48'815.6
2017-Oct-15 00:31N 25°38' W 079°54'816.3
2017-Oct-15 00:01N 25°43' W 080°01'612.0
2017-Oct-14 23:30N 25°46' W 080°07'3 6.4
2017-Oct-14 23:00N 25°47' W 080°11'0 0.0
2017-Oct-14 22:29N 25°47' W 080°11'0 0.0
2017-Oct-14 21:59N 25°47' W 080°11'0 0.0
2017-Oct-14 21:30N 25°47' W 080°11'0 0.0
2017-Oct-14 21:00N 25°47' W 080°11'0 0.0
2017-Oct-14 20:29N 25°47' W 080°11'0 0.0
2017-Oct-14 20:00N 25°47' W 080°11'0 0.0
2017-Oct-14 19:30N 25°47' W 080°11'0 0.0
2017-Oct-14 19:00N 25°47' W 080°11'0 0.0
2017-Oct-14 18:29N 25°47' W 080°11'0 0.0
2017-Oct-14 17:59N 25°47' W 080°11'0 0.0
2017-Oct-14 17:29N 25°47' W 080°11'0 0.0
2017-Oct-14 17:00N 25°47' W 080°11'0 0.0
2017-Oct-14 16:30N 25°47' W 080°11'0 0.0
2017-Oct-14 16:00N 25°47' W 080°11'0 0.0
2017-Oct-14 15:29N 25°47' W 080°11'0 0.0
2017-Oct-14 14:59N 25°47' W 080°11'0 0.0
2017-Oct-14 14:30N 25°47' W 080°11'0 0.0
2017-Oct-14 14:00N 25°47' W 080°11'0 0.0
2017-Oct-14 13:30N 25°47' W 080°11'0 0.0
2017-Oct-14 13:00N 25°47' W 080°11'0 0.0
2017-Oct-14 12:30N 25°47' W 080°11'0 0.0
2017-Oct-14 11:59N 25°47' W 080°11'0 0.0
2017-Oct-14 11:29N 25°47' W 080°11'0 0.0
2017-Oct-14 11:00N 25°47' W 080°11'0 0.0
2017-Oct-14 10:30N 25°47' W 080°11'0 0.0
2017-Oct-14 10:00N 25°47' W 080°11'0 0.6
2017-Oct-14 09:31N 25°47' W 080°11'2 4.1
2017-Oct-14 09:00N 25°46' W 080°09'611.8
2017-Oct-14 08:31N 25°47' W 080°02'510.3
2017-Oct-14 08:00N 25°49' W 079°57'816.9
2017-Oct-14 07:30N 25°53' W 079°49'917.1
2017-Oct-14 07:01N 25°57' W 079°40'917.0
2017-Oct-14 06:30N 26°02' W 079°33'817.0
2017-Oct-14 06:01N 26°06' W 079°24'124 6.9
2017-Oct-13 12:00N 25°06' W 077°24'11515.6 090 / 181016.1 5.4 29.026.328.0
2017-Oct-13 04:36N 25°49' W 079°22'219.4
2017-Oct-13 04:30N 25°48' W 079°23'1019.4
2017-Oct-13 04:00N 25°38' W 079°26'1119.5
2017-Oct-13 03:27N 25°28' W 079°30'27417.7
2017-Oct-12 12:00N 23°00' W 083°42'   030 / 201014.1 5.4 29.024.928.0

Dump ship's entire track history